Time;durP1;ratioP1;P1;durP2;ratioP2;P2;SDS_P1;SDS_P2;PMS_P1;PMS_P2;Temp;Humidity;BMP_temperature;BMP_pressure;BME280_temperature;BME280_humidity;BME280_pressure;Samples;Min_cycle;Max_cycle;Signal;HPM_P1;HPM_P2
2022/05/02 00:00:24;;;;;;;30.48;15.82;;;;;;;;;;4997299;28;20410;-72
2022/05/02 00:02:49;;;;;;;29.90;15.98;;;;;;;;;;4998905;28;20272;-72
2022/05/02 00:05:15;;;;;;;32.05;14.70;;;;;;;;;;4984966;28;20034;-72
2022/05/02 00:07:40;;;;;;;34.28;16.77;;;;;;;;;;4992028;28;20408;-72
2022/05/02 00:10:06;;;;;;;35.80;16.75;;;;;;;;;;4991024;28;20048;-72
2022/05/02 00:12:31;;;;;;;32.53;16.90;;;;;;;;;;4988659;28;20274;-72
2022/05/02 00:14:56;;;;;;;29.90;15.55;;;;;;;;;;4996996;28;20030;-72
2022/05/02 00:17:56;;;;;;;33.80;16.52;;;;;;;;;;4995114;28;20116;-72
2022/05/02 00:20:10;;;;;;;39.38;17.30;;;;;;;;;;4989680;28;20286;-72
2022/05/02 00:22:35;;;;;;;32.35;16.52;;;;;;;;;;4989610;28;20030;-72
2022/05/02 00:25:00;;;;;;;31.27;16.30;;;;;;;;;;4997747;28;20028;-72
2022/05/02 00:27:26;;;;;;;32.70;16.10;;;;;;;;;;4996493;28;20361;-72
2022/05/02 00:29:51;;;;;;;33.75;15.77;;;;;;;;;;4977463;28;20271;-72
2022/05/02 00:32:16;;;;;;;37.20;16.83;;;;;;;;;;4991625;28;20630;-72
2022/05/02 00:34:41;;;;;;;31.63;15.35;;;;;;;;;;4990915;28;20272;-72
2022/05/02 00:37:06;;;;;;;29.00;15.38;;;;;;;;;;4990473;28;20282;-72
2022/05/02 00:39:32;;;;;;;30.77;16.17;;;;;;;;;;4993089;28;20283;-72
2022/05/02 00:41:57;;;;;;;35.75;18.10;;;;;;;;;;4989052;28;20274;-72
2022/05/02 00:44:23;;;;;;;35.55;17.10;;;;;;;;;;4991437;28;20025;-72
2022/05/02 00:46:48;;;;;;;33.83;17.23;;;;;;;;;;4980234;28;20030;-72
2022/05/02 00:49:15;;;;;;;35.00;16.48;;;;;;;;;;4977235;28;20022;-72
2022/05/02 00:51:40;;;;;;;29.02;13.40;;;;;;;;;;4991275;28;20018;-72
2022/05/02 00:54:05;;;;;;;33.30;16.17;;;;;;;;;;5000990;28;20029;-72
2022/05/02 00:56:31;;;;;;;34.00;17.08;;;;;;;;;;4994441;28;20458;-72
2022/05/02 00:58:56;;;;;;;32.47;16.23;;;;;;;;;;4979665;28;20026;-72
2022/05/02 01:01:21;;;;;;;43.53;17.00;;;;;;;;;;4978670;28;20034;-72
2022/05/02 01:03:46;;;;;;;40.75;18.20;;;;;;;;;;5001376;28;20283;-72
2022/05/02 01:08:55;;;;;;;31.73;16.03;;;;;;;;;;4997489;28;20263;-72
2022/05/02 01:11:21;;;;;;;38.35;16.48;;;;;;;;;;4990531;28;20635;-72
2022/05/02 01:13:47;;;;;;;37.25;17.35;;;;;;;;;;4992788;28;20128;-72
2022/05/02 01:16:14;;;;;;;36.97;18.30;;;;;;;;;;4999094;28;20026;-72
2022/05/02 01:18:40;;;;;;;37.50;17.13;;;;;;;;;;4992453;28;20365;-72
2022/05/02 01:21:15;;;;;;;34.15;17.38;;;;;;;;;;5006981;28;20534;-72
2022/05/02 01:23:41;;;;;;;36.17;17.73;;;;;;;;;;5003121;28;20376;-72
2022/05/02 01:26:06;;;;;;;37.15;18.20;;;;;;;;;;4999617;28;20144;-72
2022/05/02 01:28:32;;;;;;;35.13;17.38;;;;;;;;;;4989294;28;20472;-72
2022/05/02 01:30:57;;;;;;;36.95;18.38;;;;;;;;;;4994900;28;20398;-72
2022/05/02 01:33:22;;;;;;;43.38;19.45;;;;;;;;;;4995262;28;20029;-72
2022/05/02 01:35:47;;;;;;;46.40;21.23;;;;;;;;;;4994704;28;20017;-72
2022/05/02 01:38:13;;;;;;;42.85;20.45;;;;;;;;;;4992549;28;20033;-72
2022/05/02 01:40:38;;;;;;;43.95;20.27;;;;;;;;;;4991976;28;20634;-72
2022/05/02 01:43:03;;;;;;;39.97;17.08;;;;;;;;;;4991487;28;20061;-72
2022/05/02 01:45:28;;;;;;;40.22;18.50;;;;;;;;;;4973984;28;20030;-72
2022/05/02 01:47:53;;;;;;;35.33;17.23;;;;;;;;;;4973286;28;20636;-72
2022/05/02 01:50:18;;;;;;;36.78;17.90;;;;;;;;;;4989359;28;20279;-72
2022/05/02 01:52:44;;;;;;;39.15;17.40;;;;;;;;;;4986421;28;20889;-72
2022/05/02 01:55:09;;;;;;;33.70;16.98;;;;;;;;;;4999128;28;20034;-72
2022/05/02 01:57:34;;;;;;;39.90;18.90;;;;;;;;;;4990156;28;20401;-72
2022/05/02 01:59:59;;;;;;;40.08;19.25;;;;;;;;;;4989834;28;20584;-72
2022/05/02 02:02:24;;;;;;;39.90;19.90;;;;;;;;;;4997287;28;20268;-72
2022/05/02 02:07:33;;;;;;;36.40;17.40;;;;;;;;;;4995359;28;20477;-72
2022/05/02 02:09:58;;;;;;;38.20;19.05;;;;;;;;;;4997438;28;20492;-72
2022/05/02 02:12:23;;;;;;;38.93;17.33;;;;;;;;;;4996337;28;20357;-72
2022/05/02 02:14:49;;;;;;;35.88;17.33;;;;;;;;;;4998048;28;20619;-72
2022/05/02 02:17:14;;;;;;;39.33;19.13;;;;;;;;;;5012828;28;20269;-72
2022/05/02 02:19:39;;;;;;;39.47;17.92;;;;;;;;;;5010677;28;20337;-72
2022/05/02 02:22:16;;;;;;;38.25;19.00;;;;;;;;;;4994574;28;20389;-72
2022/05/02 02:24:46;;;;;;;44.03;19.90;;;;;;;;;;5001789;28;20276;-72
2022/05/02 02:27:11;;;;;;;39.58;19.17;;;;;;;;;;5000983;28;20471;-72
2022/05/02 02:29:36;;;;;;;44.90;19.90;;;;;;;;;;5007385;28;20024;-72
2022/05/02 02:32:01;;;;;;;45.92;20.00;;;;;;;;;;4994688;28;20034;-72
2022/05/02 02:34:26;;;;;;;46.55;20.70;;;;;;;;;;4999255;28;20348;-72
2022/05/02 02:36:51;;;;;;;46.47;21.98;;;;;;;;;;4998213;28;20022;-72
2022/05/02 02:39:17;;;;;;;55.90;22.40;;;;;;;;;;4996261;28;20666;-72
2022/05/02 02:41:42;;;;;;;44.42;20.60;;;;;;;;;;4988405;28;20628;-72
2022/05/02 02:44:07;;;;;;;43.50;19.27;;;;;;;;;;5005198;28;20286;-72
2022/05/02 02:46:32;;;;;;;47.22;19.73;;;;;;;;;;5008449;28;20288;-72
2022/05/02 02:48:57;;;;;;;36.45;18.33;;;;;;;;;;5003351;28;20649;-72
2022/05/02 02:51:22;;;;;;;39.42;18.75;;;;;;;;;;4996950;28;20374;-72
2022/05/02 02:53:48;;;;;;;41.97;19.75;;;;;;;;;;4993940;28;20287;-72
2022/05/02 02:56:14;;;;;;;48.70;18.42;;;;;;;;;;4995584;28;20045;-72
2022/05/02 02:58:39;;;;;;;39.72;18.98;;;;;;;;;;5002598;28;20192;-72
2022/05/02 03:01:04;;;;;;;37.47;18.52;;;;;;;;;;5002350;28;20065;-72
2022/05/02 03:03:29;;;;;;;38.78;17.98;;;;;;;;;;5007037;28;20409;-72
2022/05/02 03:06:04;;;;;;;40.42;19.58;;;;;;;;;;4990554;28;20784;-72
2022/05/02 03:08:31;;;;;;;45.60;19.88;;;;;;;;;;5011058;28;20331;-72
2022/05/02 03:10:57;;;;;;;42.42;18.02;;;;;;;;;;5007852;28;20018;-72
2022/05/02 03:13:23;;;;;;;43.22;20.27;;;;;;;;;;5002681;28;20526;-72
2022/05/02 03:15:48;;;;;;;42.20;19.60;;;;;;;;;;5013465;28;20018;-72
2022/05/02 03:18:13;;;;;;;42.58;19.17;;;;;;;;;;5007676;28;20038;-72
2022/05/02 03:20:38;;;;;;;48.97;22.90;;;;;;;;;;4985567;28;20034;-72
2022/05/02 03:23:03;;;;;;;42.97;20.95;;;;;;;;;;4997451;28;20391;-72
2022/05/02 03:25:29;;;;;;;50.80;22.00;;;;;;;;;;4992919;28;20294;-72
2022/05/02 03:27:54;;;;;;;51.05;21.10;;;;;;;;;;4991106;28;20487;-72
2022/05/02 03:30:19;;;;;;;49.28;22.00;;;;;;;;;;4996013;28;20278;-72
2022/05/02 03:32:44;;;;;;;55.85;22.45;;;;;;;;;;4978212;28;20275;-72
2022/05/02 03:35:09;;;;;;;45.20;20.05;;;;;;;;;;4998206;28;20064;-72
2022/05/02 03:37:35;;;;;;;43.20;20.45;;;;;;;;;;4977744;28;20749;-72
2022/05/02 03:40:00;;;;;;;53.17;19.77;;;;;;;;;;4995927;28;20031;-72
2022/05/02 03:42:25;;;;;;;41.58;18.38;;;;;;;;;;4999434;28;20084;-72
2022/05/02 03:44:51;;;;;;;47.65;20.23;;;;;;;;;;4994904;28;20650;-72
2022/05/02 03:47:17;;;;;;;45.72;20.15;;;;;;;;;;4997356;28;20033;-72
2022/05/02 03:49:42;;;;;;;45.05;18.25;;;;;;;;;;4994931;28;20029;-72
2022/05/02 03:52:07;;;;;;;45.22;19.35;;;;;;;;;;4994982;28;20108;-72
2022/05/02 03:54:32;;;;;;;45.00;18.80;;;;;;;;;;4992959;28;20040;-72
2022/05/02 03:56:57;;;;;;;43.77;19.10;;;;;;;;;;4991733;28;20038;-72
2022/05/02 03:59:22;;;;;;;44.42;19.55;;;;;;;;;;4974830;28;20272;-72
2022/05/02 04:01:48;;;;;;;49.28;20.08;;;;;;;;;;5000533;28;20095;-72
2022/05/02 04:04:13;;;;;;;41.03;18.75;;;;;;;;;;4988059;28;20661;-72
2022/05/02 04:06:38;;;;;;;38.95;18.15;;;;;;;;;;4990368;28;20646;-72
2022/05/02 04:09:03;;;;;;;35.70;17.55;;;;;;;;;;5006219;28;20109;-72
2022/05/02 04:11:29;;;;;;;44.58;18.83;;;;;;;;;;5002712;28;20076;-72
2022/05/02 04:13:54;;;;;;;43.17;18.85;;;;;;;;;;5006443;28;20036;-71
2022/05/02 04:16:19;;;;;;;37.03;18.30;;;;;;;;;;5002346;28;20030;-72
2022/05/02 04:18:45;;;;;;;44.63;19.70;;;;;;;;;;5017797;28;20298;-72
2022/05/02 04:21:11;;;;;;;39.80;19.30;;;;;;;;;;5010436;28;20515;-72
2022/05/02 04:23:36;;;;;;;43.80;19.55;;;;;;;;;;5003252;28;20030;-72
2022/05/02 04:26:01;;;;;;;45.77;19.67;;;;;;;;;;5004459;28;20065;-72
2022/05/02 04:28:26;;;;;;;42.38;19.00;;;;;;;;;;5003621;28;20366;-72
2022/05/02 04:30:52;;;;;;;43.87;20.33;;;;;;;;;;4986046;28;20420;-72
2022/05/02 04:33:17;;;;;;;41.00;18.15;;;;;;;;;;4995731;28;20270;-72
2022/05/02 04:35:43;;;;;;;41.10;19.55;;;;;;;;;;4994277;28;21917;-72
2022/05/02 04:38:08;;;;;;;48.08;20.65;;;;;;;;;;4999039;28;20061;-71
2022/05/02 04:40:33;;;;;;;53.23;20.83;;;;;;;;;;5002728;28;20665;-75
2022/05/02 04:42:58;;;;;;;48.97;22.08;;;;;;;;;;4984904;28;20263;-71
2022/05/02 04:45:23;;;;;;;46.17;19.67;;;;;;;;;;5005842;28;20026;-69
2022/05/02 04:47:48;;;;;;;47.25;19.90;;;;;;;;;;4996700;28;20291;-72
2022/05/02 04:50:14;;;;;;;37.20;18.38;;;;;;;;;;5001778;28;20014;-72
2022/05/02 04:52:39;;;;;;;41.42;19.15;;;;;;;;;;4993647;28;20286;-73
2022/05/02 04:55:04;;;;;;;45.15;19.40;;;;;;;;;;4997615;28;20040;-73
2022/05/02 04:57:29;;;;;;;40.95;19.08;;;;;;;;;;5004364;28;20378;-74
2022/05/02 04:59:55;;;;;;;49.05;20.30;;;;;;;;;;4997291;28;20045;-74
2022/05/02 05:02:20;;;;;;;42.95;19.77;;;;;;;;;;5005524;28;20124;-73
2022/05/02 05:04:46;;;;;;;49.63;21.38;;;;;;;;;;5012777;28;20056;-74
2022/05/02 05:07:11;;;;;;;50.30;21.35;;;;;;;;;;5013504;28;20029;-74
2022/05/02 05:09:36;;;;;;;49.27;22.17;;;;;;;;;;5011887;28;20689;-74
2022/05/02 05:12:02;;;;;;;50.55;22.35;;;;;;;;;;5019200;28;20258;-74
2022/05/02 05:17:42;;;;;;;49.70;21.83;;;;;;;;;;5008337;28;20273;-73
2022/05/02 05:20:10;;;;;;;49.75;21.40;;;;;;;;;;5008706;28;20037;-73
2022/05/02 05:22:47;;;;;;;50.47;21.95;;;;;;;;;;4981765;28;20452;-74
2022/05/02 05:25:25;;;;;;;53.85;22.42;;;;;;;;;;5007829;28;20033;-74
2022/05/02 05:28:09;;;;;;;51.95;21.17;;;;;;;;;;5002035;28;20418;-73
2022/05/02 05:30:37;;;;;;;57.73;23.03;;;;;;;;;;5000385;28;20040;-72
2022/05/02 05:33:19;;;;;;;56.47;22.88;;;;;;;;;;4997449;28;20749;-73
2022/05/02 05:36:03;;;;;;;51.45;23.23;;;;;;;;;;5001798;28;20040;-71
2022/05/02 05:38:38;;;;;;;57.00;24.20;;;;;;;;;;5004827;28;20033;-74
2022/05/02 05:41:30;;;;;;;56.45;23.10;;;;;;;;;;5002927;28;20033;-72
2022/05/02 05:44:16;;;;;;;61.28;25.77;;;;;;;;;;4987105;28;20042;-73
2022/05/02 05:46:41;;;;;;;55.00;23.80;;;;;;;;;;4992928;28;20041;-73
2022/05/02 05:49:19;;;;;;;68.15;26.25;;;;;;;;;;5005964;28;20027;-73
2022/05/02 05:52:02;;;;;;;60.95;24.50;;;;;;;;;;5012254;28;20037;-73
2022/05/02 05:54:46;;;;;;;53.33;23.48;;;;;;;;;;4997239;28;20034;-73
2022/05/02 05:57:17;;;;;;;61.58;25.90;;;;;;;;;;5017135;28;20025;-73
2022/05/02 06:00:01;;;;;;;69.30;27.55;;;;;;;;;;5009110;28;20479;-73
2022/05/02 06:02:32;;;;;;;64.90;26.38;;;;;;;;;;5007603;28;20033;-73
2022/05/02 06:04:58;;;;;;;60.78;27.42;;;;;;;;;;5007013;28;20461;-73
2022/05/02 06:07:26;;;;;;;63.67;26.65;;;;;;;;;;5011447;28;20030;-73
2022/05/02 06:09:52;;;;;;;60.55;26.15;;;;;;;;;;4992919;28;20522;-73
2022/05/02 06:12:19;;;;;;;55.13;25.70;;;;;;;;;;5011375;28;20034;-74
2022/05/02 06:20:14;;;;;;;49.75;21.42;;;;;;;;;;5009691;28;20094;-73
2022/05/02 06:22:39;;;;;;;58.38;24.13;;;;;;;;;;4998483;28;20034;-73
2022/05/02 06:25:05;;;;;;;50.78;22.98;;;;;;;;;;5010285;28;20072;-73
2022/05/02 06:27:31;;;;;;;52.08;21.88;;;;;;;;;;5002109;28;20440;-72
2022/05/02 06:29:57;;;;;;;55.90;23.02;;;;;;;;;;5010705;28;20381;-73
2022/05/02 06:32:23;;;;;;;41.00;20.30;;;;;;;;;;5010302;28;20029;-73
2022/05/02 06:34:48;;;;;;;60.65;22.02;;;;;;;;;;5004808;28;20030;-72
2022/05/02 06:37:18;;;;;;;44.57;20.20;;;;;;;;;;5007218;28;20030;-72
2022/05/02 06:39:49;;;;;;;45.80;21.77;;;;;;;;;;5005990;28;20374;-72
2022/05/02 06:42:33;;;;;;;47.92;19.38;;;;;;;;;;5005144;28;20134;-72
2022/05/02 06:45:03;;;;;;;44.03;20.50;;;;;;;;;;5010255;28;20017;-72
2022/05/02 06:47:31;;;;;;;40.90;21.65;;;;;;;;;;5010706;28;20025;-72
2022/05/02 06:49:58;;;;;;;39.03;18.40;;;;;;;;;;5009113;28;20515;-72
2022/05/02 06:52:26;;;;;;;41.80;20.48;;;;;;;;;;5008594;28;20049;-72
2022/05/02 06:55:03;;;;;;;39.78;20.38;;;;;;;;;;5002157;28;20018;-74
2022/05/02 06:57:52;;;;;;;36.97;18.77;;;;;;;;;;5008662;28;20022;-74
2022/05/02 07:00:19;;;;;;;36.90;16.92;;;;;;;;;;5011691;28;20034;-74
2022/05/02 07:03:06;;;;;;;32.78;17.35;;;;;;;;;;5011584;28;20022;-75
2022/05/02 07:05:57;;;;;;;34.25;18.15;;;;;;;;;;5007937;28;20101;-74
2022/05/02 07:08:27;;;;;;;33.95;14.75;;;;;;;;;;4997996;28;20057;-74
2022/05/02 07:10:56;;;;;;;33.95;17.25;;;;;;;;;;5008106;28;20044;-76
2022/05/02 07:13:40;;;;;;;35.83;20.05;;;;;;;;;;5006984;28;20135;-74
2022/05/02 07:16:05;;;;;;;;;;;;;;;;;;5001679;28;20100;-74
2022/05/02 07:18:49;;;;;;;30.48;17.10;;;;;;;;;;5010144;28;20360;-74
2022/05/02 07:21:22;;;;;;;27.65;15.57;;;;;;;;;;5013703;28;20029;-74
2022/05/02 07:23:47;;;;;;;33.03;15.35;;;;;;;;;;4988682;28;20496;-74
2022/05/02 07:26:13;;;;;;;25.35;14.38;;;;;;;;;;5005275;28;20459;-74
2022/05/02 07:28:39;;;;;;;25.05;14.05;;;;;;;;;;5004434;28;20396;-74
2022/05/02 07:31:04;;;;;;;23.50;13.10;;;;;;;;;;5008756;28;20415;-74
2022/05/02 07:33:31;;;;;;;32.67;15.10;;;;;;;;;;5004476;28;20492;-74
2022/05/02 07:35:57;;;;;;;24.25;13.57;;;;;;;;;;5017645;28;20025;-74
2022/05/02 07:38:22;;;;;;;23.30;13.73;;;;;;;;;;5007008;28;20055;-74
2022/05/02 07:43:33;;;;;;;26.95;13.90;;;;;;;;;;5004564;28;20365;-74
2022/05/02 07:45:58;;;;;;;21.65;12.07;;;;;;;;;;5003828;28;20042;-74
2022/05/02 07:48:24;;;;;;;24.52;13.15;;;;;;;;;;5006587;28;20069;-74
2022/05/02 07:50:50;;;;;;;22.70;13.40;;;;;;;;;;5011996;28;20045;-74
2022/05/02 07:53:15;;;;;;;19.95;12.20;;;;;;;;;;5003291;28;20076;-74
2022/05/02 07:55:43;;;;;;;23.67;11.88;;;;;;;;;;4990802;28;20471;-74
2022/05/02 07:58:09;;;;;;;18.42;12.73;;;;;;;;;;5005250;28;20018;-74
2022/05/02 08:00:34;;;;;;;20.77;12.88;;;;;;;;;;5007594;28;20018;-74
2022/05/02 08:02:59;;;;;;;21.60;11.95;;;;;;;;;;5003156;28;20037;-74
2022/05/02 08:05:26;;;;;;;18.60;10.80;;;;;;;;;;5005049;28;20030;-74
2022/05/02 08:07:53;;;;;;;18.50;11.23;;;;;;;;;;5002666;28;20030;-73
2022/05/02 08:10:21;;;;;;;17.38;10.38;;;;;;;;;;4982790;28;20025;-74
2022/05/02 08:12:53;;;;;;;16.95;10.55;;;;;;;;;;4985413;28;20021;-73
2022/05/02 08:15:25;;;;;;;22.30;10.88;;;;;;;;;;5002526;28;20236;-74
2022/05/02 08:17:53;;;;;;;16.15;9.93;;;;;;;;;;5007664;28;20029;-74
2022/05/02 08:20:37;;;;;;;21.95;10.02;;;;;;;;;;5012439;28;20314;-74
2022/05/02 08:29:06;;;;;;;16.80;10.20;;;;;;;;;;5005079;28;20067;-74
2022/05/02 08:31:41;;;;;;;13.85;9.18;;;;;;;;;;5006928;28;20018;-74
2022/05/02 08:34:09;;;;;;;15.60;10.70;;;;;;;;;;5005950;28;20075;-74
2022/05/02 08:36:51;;;;;;;17.00;9.27;;;;;;;;;;5004218;28;20022;-74
2022/05/02 08:39:19;;;;;;;13.95;9.40;;;;;;;;;;5007181;28;20350;-74
2022/05/02 08:41:57;;;;;;;14.27;9.60;;;;;;;;;;5009874;28;20443;-73
2022/05/02 08:44:28;;;;;;;15.00;10.13;;;;;;;;;;5001236;28;20053;-75
2022/05/02 08:46:53;;;;;;;19.05;9.88;;;;;;;;;;5007139;28;20040;-74
2022/05/02 08:49:35;;;;;;;17.27;11.02;;;;;;;;;;5008697;28;20240;-75
2022/05/02 08:52:28;;;;;;;17.15;10.45;;;;;;;;;;5012235;28;20022;-74
2022/05/02 08:55:08;;;;;;;24.52;10.10;;;;;;;;;;5008326;28;20052;-74
2022/05/02 08:57:34;;;;;;;20.92;10.88;;;;;;;;;;4988129;28;20076;-74
2022/05/02 09:00:09;;;;;;;18.85;10.93;;;;;;;;;;5002916;28;20030;-74
2022/05/02 09:02:53;;;;;;;18.85;11.50;;;;;;;;;;4997933;28;20434;-74
2022/05/02 09:05:37;;;;;;;16.50;10.75;;;;;;;;;;5008446;28;20022;-73
2022/05/02 09:08:17;;;;;;;17.88;10.95;;;;;;;;;;5003634;28;20045;-75
2022/05/02 09:10:51;;;;;;;17.30;10.30;;;;;;;;;;5002302;28;20086;-74
2022/05/02 09:13:35;;;;;;;19.83;11.88;;;;;;;;;;5005628;28;20491;-74
2022/05/02 09:16:14;;;;;;;16.23;10.18;;;;;;;;;;5004252;28;20033;-73
2022/05/02 09:18:58;;;;;;;18.35;9.82;;;;;;;;;;5008530;28;20037;-74
2022/05/02 09:21:32;;;;;;;20.58;11.52;;;;;;;;;;5006456;28;20033;-74
2022/05/02 09:24:15;;;;;;;17.58;11.20;;;;;;;;;;5006030;28;20036;-74
2022/05/02 09:26:53;;;;;;;19.58;11.68;;;;;;;;;;4998224;28;20053;-74
2022/05/02 09:29:30;;;;;;;19.42;11.60;;;;;;;;;;5002330;28;20492;-75
2022/05/02 09:31:58;;;;;;;16.45;11.40;;;;;;;;;;4994386;28;20044;-74
2022/05/02 09:34:27;;;;;;;25.38;12.05;;;;;;;;;;5004273;28;20033;-74
2022/05/02 09:37:02;;;;;;;18.42;11.63;;;;;;;;;;5011343;28;20022;-74
2022/05/02 09:39:47;;;;;;;19.25;11.35;;;;;;;;;;5009938;28;20520;-74
2022/05/02 09:42:31;;;;;;;18.92;12.43;;;;;;;;;;5004176;28;20030;-74
2022/05/02 09:50:54;;;;;;;20.52;12.10;;;;;;;;;;5015879;28;20048;-74
2022/05/02 09:53:40;;;;;;;21.20;12.82;;;;;;;;;;5003450;28;20180;-74
2022/05/02 09:59:29;;;;;;;17.83;12.15;;;;;;;;;;5008939;28;20362;-76
2022/05/02 10:02:01;;;;;;;22.27;12.82;;;;;;;;;;5003338;28;20040;-75
2022/05/02 10:04:35;;;;;;;26.92;13.80;;;;;;;;;;5004871;28;20030;-76
2022/05/02 10:07:05;;;;;;;23.92;14.43;;;;;;;;;;5003041;28;20034;-75
2022/05/02 10:09:49;;;;;;;21.38;12.63;;;;;;;;;;5004782;28;20384;-75
2022/05/02 10:12:29;;;;;;;21.02;13.35;;;;;;;;;;4990397;28;20060;-75
2022/05/02 10:15:13;;;;;;;21.98;13.15;;;;;;;;;;5008268;28;20067;-75
2022/05/02 10:17:53;;;;;;;21.00;12.73;;;;;;;;;;5003510;28;20192;-74
2022/05/02 10:20:22;;;;;;;23.85;12.75;;;;;;;;;;5007734;28;20064;-74
2022/05/02 10:22:50;;;;;;;22.80;13.60;;;;;;;;;;5004363;28;20087;-74
2022/05/02 10:25:20;;;;;;;23.38;13.68;;;;;;;;;;5003099;28;20033;-75
2022/05/02 10:28:00;;;;;;;21.73;13.85;;;;;;;;;;5005738;28;20141;-75
2022/05/02 10:30:28;;;;;;;25.10;14.13;;;;;;;;;;5005374;28;20068;-75
2022/05/02 10:32:55;;;;;;;28.08;14.45;;;;;;;;;;4998681;28;20029;-75
2022/05/02 10:35:21;;;;;;;22.20;15.77;;;;;;;;;;5004419;28;20053;-76
2022/05/02 10:37:59;;;;;;;24.00;14.93;;;;;;;;;;5012134;28;20030;-75
2022/05/02 10:40:38;;;;;;;23.38;13.85;;;;;;;;;;5012258;28;20017;-75
2022/05/02 10:43:05;;;;;;;23.08;12.73;;;;;;;;;;5005288;28;20479;-75
2022/05/02 10:45:32;;;;;;;23.45;14.10;;;;;;;;;;5003120;28;20025;-74
2022/05/02 10:48:05;;;;;;;22.10;14.40;;;;;;;;;;5011726;28;20490;-74
2022/05/02 10:50:31;;;;;;;21.67;14.30;;;;;;;;;;5015747;28;20030;-75
2022/05/02 10:52:59;;;;;;;23.45;13.93;;;;;;;;;;5009601;28;20091;-74
2022/05/02 10:55:26;;;;;;;19.70;14.45;;;;;;;;;;5014321;28;20037;-75
2022/05/02 10:57:55;;;;;;;20.30;14.90;;;;;;;;;;5010803;28;20478;-74
2022/05/02 11:00:20;;;;;;;23.00;16.17;;;;;;;;;;5018007;28;20458;-75
2022/05/02 11:03:12;;;;;;;23.38;14.68;;;;;;;;;;5003894;28;20514;-74
2022/05/02 11:05:43;;;;;;;20.95;14.93;;;;;;;;;;5009654;28;20539;-72
2022/05/02 11:08:11;;;;;;;23.42;14.88;;;;;;;;;;5005285;28;20113;-71
2022/05/02 11:10:57;;;;;;;19.67;14.15;;;;;;;;;;5008984;28;20036;-74
2022/05/02 11:13:23;;;;;;;20.33;14.77;;;;;;;;;;5009629;28;20029;-74
2022/05/02 11:16:02;;;;;;;23.05;15.38;;;;;;;;;;5018003;28;20037;-72
2022/05/02 11:21:24;;;;;;;22.40;15.23;;;;;;;;;;5005150;28;20041;-73
2022/05/02 11:24:01;;;;;;;20.98;14.68;;;;;;;;;;5008241;28;20021;-73
2022/05/02 11:26:43;;;;;;;18.85;14.55;;;;;;;;;;5004792;28;20061;-75
2022/05/02 11:29:08;;;;;;;25.75;14.60;;;;;;;;;;5007935;28;20049;-74
2022/05/02 11:31:38;;;;;;;24.40;15.97;;;;;;;;;;5019382;28;20060;-72
2022/05/02 11:34:21;;;;;;;20.63;13.85;;;;;;;;;;5004987;28;20025;-72
2022/05/02 11:36:49;;;;;;;21.17;14.68;;;;;;;;;;5001180;28;20116;-73
2022/05/02 11:39:19;;;;;;;21.83;14.32;;;;;;;;;;5011240;28;20041;-75
2022/05/02 11:41:47;;;;;;;21.15;14.10;;;;;;;;;;5013090;28;20021;-74
2022/05/02 11:44:13;;;;;;;24.35;15.77;;;;;;;;;;5005131;28;20045;-72
2022/05/02 11:47:13;;;;;;;23.55;15.15;;;;;;;;;;5003252;28;20116;-74
2022/05/02 11:49:51;;;;;;;21.35;14.88;;;;;;;;;;4959045;28;20062;-74
2022/05/02 11:52:28;;;;;;;20.95;14.60;;;;;;;;;;5016940;28;20022;-74
2022/05/02 11:54:56;;;;;;;21.45;13.60;;;;;;;;;;5008835;28;20353;-74
2022/05/02 11:57:25;;;;;;;20.30;13.75;;;;;;;;;;5004312;28;20049;-75
2022/05/02 12:00:05;;;;;;;21.23;13.13;;;;;;;;;;5009132;28;20464;-74
2022/05/02 12:02:34;;;;;;;20.27;14.00;;;;;;;;;;4997796;28;20141;-73
2022/05/02 12:05:02;;;;;;;19.00;13.48;;;;;;;;;;5009683;28;20053;-74
2022/05/02 12:07:33;;;;;;;19.48;13.93;;;;;;;;;;5014900;28;20140;-74
2022/05/02 12:10:03;;;;;;;18.70;13.93;;;;;;;;;;5009399;28;20030;-75
2022/05/02 12:12:31;;;;;;;18.42;12.73;;;;;;;;;;4999027;28;20116;-73
2022/05/02 12:14:59;;;;;;;20.50;13.82;;;;;;;;;;5007068;28;20088;-73
2022/05/02 12:17:25;;;;;;;18.83;12.82;;;;;;;;;;4990743;28;20144;-75
2022/05/02 12:19:50;;;;;;;18.63;13.68;;;;;;;;;;5009491;28;20404;-76
2022/05/02 12:22:16;;;;;;;20.23;14.03;;;;;;;;;;5010466;28;20050;-73
2022/05/02 12:24:43;;;;;;;19.42;13.40;;;;;;;;;;5005362;28;20064;-73
2022/05/02 12:27:09;;;;;;;18.08;13.77;;;;;;;;;;5010199;28;20026;-73
2022/05/02 12:29:34;;;;;;;16.33;13.98;;;;;;;;;;5004795;28;20029;-74
2022/05/02 12:32:01;;;;;;;19.52;15.00;;;;;;;;;;4993761;28;20371;-74
2022/05/02 12:34:39;;;;;;;24.55;16.38;;;;;;;;;;5011002;28;20037;-76
2022/05/02 12:37:07;;;;;;;17.80;12.88;;;;;;;;;;5005905;28;20423;-76
2022/05/02 12:39:44;;;;;;;19.38;13.18;;;;;;;;;;5007794;28;20030;-75
2022/05/02 12:42:15;;;;;;;17.02;12.40;;;;;;;;;;5006697;28;20022;-76
2022/05/02 12:44:46;;;;;;;22.27;13.85;;;;;;;;;;4997125;28;20535;-74
2022/05/02 12:47:17;;;;;;;17.77;14.93;;;;;;;;;;4993279;28;20072;-74
2022/05/02 12:49:53;;;;;;;20.73;12.52;;;;;;;;;;5006247;28;20055;-75
2022/05/02 12:52:20;;;;;;;29.55;14.18;;;;;;;;;;5010260;28;20022;-74
2022/05/02 12:54:48;;;;;;;20.33;14.07;;;;;;;;;;5008670;28;20137;-75
2022/05/02 13:02:43;;;;;;;19.52;14.68;;;;;;;;;;4999597;28;20068;-74
2022/05/02 13:05:13;;;;;;;19.30;13.98;;;;;;;;;;4998987;28;20092;-74
2022/05/02 13:07:44;;;;;;;17.00;13.88;;;;;;;;;;5013759;28;20269;-74
2022/05/02 13:10:17;;;;;;;20.13;12.95;;;;;;;;;;5018035;28;20045;-74
2022/05/02 13:13:02;;;;;;;22.00;14.27;;;;;;;;;;5006248;28;20503;-73
2022/05/02 13:15:29;;;;;;;19.05;13.70;;;;;;;;;;4999826;28;20030;-74
2022/05/02 13:18:02;;;;;;;18.08;13.85;;;;;;;;;;5005932;28;20105;-75
2022/05/02 13:20:28;;;;;;;17.95;13.25;;;;;;;;;;5022791;28;20121;-74
2022/05/02 13:23:19;;;;;;;20.58;12.95;;;;;;;;;;5005396;28;20334;-74
2022/05/02 13:26:03;;;;;;;21.60;13.57;;;;;;;;;;5002078;28;20038;-74
2022/05/02 13:28:41;;;;;;;15.20;11.85;;;;;;;;;;5000840;28;20026;-74
2022/05/02 13:31:11;;;;;;;15.45;12.15;;;;;;;;;;5025177;28;20017;-74
2022/05/02 13:33:38;;;;;;;17.90;13.80;;;;;;;;;;5009213;28;20706;-74
2022/05/02 13:36:05;;;;;;;19.45;14.13;;;;;;;;;;5000035;28;20025;-74
2022/05/02 13:38:35;;;;;;;17.98;12.88;;;;;;;;;;5010344;28;20026;-74
2022/05/02 13:41:11;;;;;;;17.90;13.65;;;;;;;;;;5017082;28;20026;-73
2022/05/02 13:43:41;;;;;;;16.25;12.85;;;;;;;;;;5006870;28;20029;-74
2022/05/02 13:46:13;;;;;;;15.73;12.38;;;;;;;;;;5004333;28;20053;-74
2022/05/02 13:48:54;;;;;;;17.73;13.60;;;;;;;;;;5006836;28;20033;-73
2022/05/02 13:51:28;;;;;;;18.55;13.95;;;;;;;;;;5011465;28;20025;-73
2022/05/02 13:53:58;;;;;;;17.52;13.73;;;;;;;;;;4999240;28;20076;-74
2022/05/02 13:56:30;;;;;;;20.50;12.95;;;;;;;;;;5012184;28;20337;-71
2022/05/02 13:59:14;;;;;;;19.00;13.68;;;;;;;;;;5009977;28;20045;-70
2022/05/02 14:01:42;;;;;;;18.02;15.13;;;;;;;;;;5011628;28;20080;-73
2022/05/02 14:04:22;;;;;;;18.70;14.00;;;;;;;;;;5006848;28;20084;-72
2022/05/02 14:09:39;;;;;;;14.60;12.27;;;;;;;;;;5005100;28;20144;-73
2022/05/02 14:12:05;;;;;;;20.15;13.23;;;;;;;;;;5010177;28;20026;-73
2022/05/02 14:14:30;;;;;;;17.80;12.73;;;;;;;;;;5015074;28;20029;-72
2022/05/02 14:16:55;;;;;;;18.85;13.23;;;;;;;;;;5009340;28;20030;-73
2022/05/02 14:19:22;;;;;;;17.20;13.13;;;;;;;;;;5004075;28;20045;-72
2022/05/02 14:21:51;;;;;;;16.05;12.85;;;;;;;;;;5016678;28;20532;-72
2022/05/02 14:24:16;;;;;;;14.63;11.90;;;;;;;;;;5013658;28;20021;-72
2022/05/02 14:26:54;;;;;;;14.83;12.27;;;;;;;;;;5008236;28;20022;-72
2022/05/02 14:29:19;;;;;;;20.50;12.75;;;;;;;;;;5002169;28;20053;-72
2022/05/02 14:31:45;;;;;;;15.63;12.65;;;;;;;;;;5007136;28;20022;-72
2022/05/02 14:34:10;;;;;;;18.30;13.03;;;;;;;;;;5015586;28;20029;-72
2022/05/02 14:36:36;;;;;;;17.08;12.57;;;;;;;;;;5006654;28;20044;-71
2022/05/02 14:39:03;;;;;;;15.27;11.95;;;;;;;;;;5013952;28;20060;-72
2022/05/02 14:41:28;;;;;;;17.00;12.82;;;;;;;;;;5008380;28;20069;-72
2022/05/02 14:43:53;;;;;;;14.75;11.60;;;;;;;;;;5013696;28;20468;-72
2022/05/02 14:46:20;;;;;;;16.58;11.45;;;;;;;;;;5010674;28;20113;-72
2022/05/02 14:48:46;;;;;;;19.67;13.45;;;;;;;;;;5009287;28;20014;-72
2022/05/02 14:51:13;;;;;;;18.33;12.38;;;;;;;;;;5005449;28;20025;-72
2022/05/02 14:53:42;;;;;;;13.60;11.70;;;;;;;;;;5006549;28;20694;-72
2022/05/02 14:56:08;;;;;;;15.73;10.48;;;;;;;;;;5013182;28;20029;-72
2022/05/02 14:58:37;;;;;;;15.52;11.07;;;;;;;;;;5007266;28;20500;-72
2022/05/02 15:01:06;;;;;;;16.95;12.00;;;;;;;;;;5005506;28;20068;-72
2022/05/02 15:03:33;;;;;;;22.25;13.40;;;;;;;;;;5007061;28;20038;-71
2022/05/02 15:06:03;;;;;;;14.10;10.80;;;;;;;;;;5009028;28;20109;-72
2022/05/02 15:08:36;;;;;;;13.10;10.23;;;;;;;;;;5007615;28;20056;-72
2022/05/02 15:11:19;;;;;;;12.93;10.30;;;;;;;;;;5013431;28;20030;-71
2022/05/02 15:13:59;;;;;;;18.50;12.05;;;;;;;;;;5003034;28;20057;-72
2022/05/02 15:16:36;;;;;;;18.27;12.00;;;;;;;;;;5000606;28;20062;-71